LTBI/ESK METAR and TAF weather

Enter ICAO airport designator
Station Type Date Time Source
LTBI METAR 2019/08/24 21:50 UTC NOAA

LTBI 242150Z 26008KT CAVOK 21/15 Q1019 NOSIG RMK RWY08 25007KT


Station Type Date Time Source
LTBI Decoded METAR 2019/08/24 21:50 UTC NOAA

Station name not available
Aug 24, 2019 - 05:50 PM EDT / 2019.08.24 2150 UTC
Wind: from the W (260 degrees) at 9 MPH (8 KT):0
Visibility: greater than 7 mile(s):0
Temperature: 69 F (21 C)
Dew Point: 59 F (15 C)
Relative Humidity: 68%
Pressure (altimeter): 30.09 in. Hg (1019 hPa)
ob: LTBI 242150Z 26008KT CAVOK 21/15 Q1019 NOSIG RMK RWY08 25007KT
cycle: 22

Station Type Date Time Source
LTBI TAF 2012/05/11 09:09 UTC NOAA

TAF LTBI 110740Z 1109/1121 VRB02KT 6000 -SHRA BKN030 BKN090
TEMPO 1112/1116 33015KT 4000 -TSRA FEW025CB BKN030

Example: see airport list